Time;durP1;ratioP1;P1;durP2;ratioP2;P2;SDS_P1;SDS_P2;PMS_P1;PMS_P2;Temp;Humidity;BMP_temperature;BMP_pressure;BME280_temperature;BME280_humidity;BME280_pressure;Samples;Min_cycle;Max_cycle;Signal;HPM_P1;HPM_P2
2021/01/08 00:01:41;;;;;;;0.38;0.20;;;21.80;30.50;;;;;;4974082;28;20050;-43
2021/01/08 00:04:07;;;;;;;0.73;0.20;;;21.80;30.50;;;;;;4973983;28;20345;-43
2021/01/08 00:06:34;;;;;;;0.30;0.28;;;21.80;30.60;;;;;;4974138;28;20022;-45
2021/01/08 00:08:59;;;;;;;0.50;0.30;;;21.70;30.50;;;;;;4974247;28;20117;-42
2021/01/08 00:11:26;;;;;;;0.20;0.20;;;21.70;30.50;;;;;;4976170;28;20030;-43
2021/01/08 00:13:52;;;;;;;0.88;0.30;;;21.70;30.60;;;;;;4982592;28;20050;-46
2021/01/08 00:16:18;;;;;;;0.70;0.30;;;21.70;30.60;;;;;;4992656;28;20042;-45
2021/01/08 00:18:45;;;;;;;0.85;0.40;;;21.70;30.70;;;;;;4993564;28;20030;-45
2021/01/08 00:21:12;;;;;;;0.20;0.20;;;21.70;30.80;;;;;;4993782;28;20034;-44
2021/01/08 00:23:38;;;;;;;0.30;0.25;;;21.70;30.80;;;;;;4995099;28;20039;-46
2021/01/08 00:26:03;;;;;;;0.35;0.30;;;21.60;30.80;;;;;;4989870;28;20129;-43
2021/01/08 00:28:30;;;;;;;1.95;0.20;;;21.60;30.80;;;;;;4990824;28;20048;-43
2021/01/08 00:30:56;;;;;;;0.30;0.30;;;21.60;30.80;;;;;;4991360;28;20038;-45
2021/01/08 00:33:21;;;;;;;0.30;0.30;;;21.60;30.80;;;;;;4979280;28;20357;-44
2021/01/08 00:35:47;;;;;;;0.13;0.13;;;21.60;30.80;;;;;;4992897;28;20041;-45
2021/01/08 00:38:13;;;;;;;0.68;0.20;;;21.60;30.80;;;;;;4977242;28;20105;-44
2021/01/08 00:40:39;;;;;;;0.52;0.22;;;21.60;30.80;;;;;;4985366;28;20042;-44
2021/01/08 00:43:05;;;;;;;0.20;0.20;;;21.50;30.70;;;;;;4979717;28;20051;-43
2021/01/08 00:45:31;;;;;;;0.20;0.20;;;21.50;30.80;;;;;;4984617;28;20040;-42
2021/01/08 00:47:57;;;;;;;0.50;0.30;;;21.50;30.80;;;;;;4985490;28;20039;-42
2021/01/08 00:50:23;;;;;;;0.95;0.40;;;21.50;30.80;;;;;;4992941;28;20045;-43
2021/01/08 00:52:49;;;;;;;0.40;0.28;;;21.50;30.80;;;;;;4986962;28;20043;-42
2021/01/08 00:55:15;;;;;;;0.30;0.20;;;21.50;30.80;;;;;;4968764;28;20053;-43
2021/01/08 00:57:54;;;;;;;2.20;0.30;;;21.40;30.70;;;;;;4962569;28;20454;-42
2021/01/08 01:00:20;;;;;;;0.70;0.20;;;21.50;30.80;;;;;;4994163;28;20041;-44
2021/01/08 01:02:46;;;;;;;0.57;0.38;;;21.40;30.80;;;;;;4980090;28;20343;-42
2021/01/08 01:05:11;;;;;;;0.30;0.20;;;21.40;30.80;;;;;;4988186;28;20046;-42
2021/01/08 01:07:37;;;;;;;0.22;0.20;;;21.40;30.80;;;;;;4994475;28;20038;-44
2021/01/08 01:10:03;;;;;;;0.90;0.20;;;21.40;30.90;;;;;;4994625;28;20041;-46
2021/01/08 01:12:29;;;;;;;0.43;0.20;;;21.40;30.90;;;;;;4994206;28;20113;-44
2021/01/08 01:14:55;;;;;;;0.38;0.30;;;21.40;30.90;;;;;;4989935;28;20134;-42
2021/01/08 01:17:21;;;;;;;0.10;0.10;;;21.40;30.90;;;;;;4983775;28;20081;-46
2021/01/08 01:19:46;;;;;;;0.70;0.28;;;21.30;30.90;;;;;;4988088;28;20030;-46
2021/01/08 01:22:12;;;;;;;0.30;0.30;;;21.30;31.00;;;;;;4988462;28;20042;-44
2021/01/08 01:24:38;;;;;;;0.57;0.20;;;21.30;31.00;;;;;;4993183;28;20049;-42
2021/01/08 01:27:04;;;;;;;0.30;0.20;;;21.30;31.00;;;;;;4981632;28;20069;-42
2021/01/08 01:29:29;;;;;;;0.60;0.20;;;21.30;31.00;;;;;;4984409;28;20033;-43
2021/01/08 01:31:55;;;;;;;0.80;0.40;;;21.30;31.10;;;;;;4994217;28;20030;-42
2021/01/08 01:34:21;;;;;;;0.52;0.30;;;21.30;31.10;;;;;;4994812;28;20030;-42
2021/01/08 01:36:47;;;;;;;0.60;0.30;;;21.30;31.10;;;;;;4988524;28;20062;-45
2021/01/08 01:39:15;;;;;;;0.20;0.20;;;21.20;31.00;;;;;;4985245;28;20054;-42
2021/01/08 01:41:42;;;;;;;0.43;0.30;;;21.30;31.10;;;;;;4994004;28;20045;-41
2021/01/08 01:44:08;;;;;;;0.20;0.20;;;21.20;31.10;;;;;;4984458;28;20037;-43
2021/01/08 01:46:34;;;;;;;0.38;0.15;;;21.20;31.10;;;;;;4994515;28;20121;-42
2021/01/08 01:49:00;;;;;;;0.50;0.30;;;21.20;31.10;;;;;;4985795;28;20330;-43
2021/01/08 01:51:26;;;;;;;0.85;0.20;;;21.20;31.10;;;;;;4991931;28;20035;-44
2021/01/08 01:53:52;;;;;;;0.30;0.20;;;21.20;31.10;;;;;;4994120;28;20038;-43
2021/01/08 01:56:18;;;;;;;0.77;0.30;;;21.20;31.10;;;;;;4993219;28;20026;-43
2021/01/08 01:58:44;;;;;;;0.40;0.22;;;21.20;31.10;;;;;;4988528;28;20031;-43
2021/01/08 02:01:10;;;;;;;0.52;0.30;;;21.20;31.10;;;;;;4993121;28;20031;-44
2021/01/08 02:03:45;;;;;;;0.30;0.30;;;21.20;31.10;;;;;;4994476;28;20434;-43
2021/01/08 02:06:14;;;;;;;0.20;0.20;;;21.20;31.10;;;;;;4993751;28;20096;-43
2021/01/08 02:08:44;;;;;;;0.35;0.28;;;21.10;31.10;;;;;;4994593;28;20100;-44
2021/01/08 02:11:13;;;;;;;0.40;0.20;;;21.10;31.10;;;;;;4975225;28;20073;-42
2021/01/08 02:13:46;;;;;;;0.60;0.30;;;21.10;31.10;;;;;;4982580;28;20062;-43
2021/01/08 02:16:13;;;;;;;0.50;0.28;;;21.10;31.10;;;;;;4995278;28;20050;-44
2021/01/08 02:18:41;;;;;;;0.28;0.20;;;21.10;31.10;;;;;;4980610;28;20034;-43
2021/01/08 02:21:22;;;;;;;0.28;0.20;;;21.10;31.10;;;;;;4997104;28;20053;-45
2021/01/08 02:24:01;;;;;;;0.30;0.20;;;21.10;31.10;;;;;;4996569;28;20034;-43
2021/01/08 02:26:27;;;;;;;0.65;0.35;;;21.10;31.20;;;;;;4986819;28;20073;-46
2021/01/08 02:28:54;;;;;;;0.35;0.20;;;21.10;31.20;;;;;;4994661;28;20046;-42
2021/01/08 02:31:20;;;;;;;0.30;0.20;;;21.00;31.20;;;;;;4995811;28;20034;-44
2021/01/08 02:33:46;;;;;;;0.85;0.20;;;21.00;31.10;;;;;;4997678;28;20353;-45
2021/01/08 02:36:12;;;;;;;0.63;0.25;;;21.00;31.20;;;;;;4989416;28;20031;-44
2021/01/08 02:38:40;;;;;;;0.22;0.20;;;21.00;31.30;;;;;;4984307;28;20034;-43
2021/01/08 02:41:09;;;;;;;0.40;0.22;;;21.00;31.30;;;;;;4994133;28;20066;-47
2021/01/08 02:43:35;;;;;;;0.20;0.20;;;21.00;31.40;;;;;;4986815;28;20069;-43
2021/01/08 02:46:02;;;;;;;0.30;0.20;;;21.00;31.40;;;;;;4996982;28;20073;-45
2021/01/08 02:48:28;;;;;;;0.20;0.10;;;21.00;31.30;;;;;;4997073;28;20046;-48
2021/01/08 02:50:54;;;;;;;0.22;0.20;;;21.00;31.30;;;;;;4996801;28;20087;-44
2021/01/08 02:53:22;;;;;;;0.30;0.15;;;21.00;31.30;;;;;;4996886;28;20061;-43
2021/01/08 02:56:00;;;;;;;0.85;0.30;;;21.00;31.30;;;;;;4995833;28;20474;-42
2021/01/08 02:58:28;;;;;;;1.17;0.35;;;21.00;31.30;;;;;;4996397;28;20034;-44
2021/01/08 03:00:55;;;;;;;0.15;0.13;;;21.00;31.30;;;;;;4992425;28;20022;-44
2021/01/08 03:03:25;;;;;;;0.52;0.30;;;20.90;31.30;;;;;;4995483;28;20088;-44
2021/01/08 03:05:51;;;;;;;0.80;0.30;;;21.00;31.30;;;;;;4996415;28;20118;-45
2021/01/08 03:08:17;;;;;;;0.10;0.10;;;20.90;31.30;;;;;;4996851;28;20133;-43
2021/01/08 03:10:43;;;;;;;0.30;0.13;;;20.90;31.30;;;;;;4988237;28;20473;-42
2021/01/08 03:13:10;;;;;;;0.90;0.30;;;20.90;31.30;;;;;;4994783;28;20045;-45
2021/01/08 03:15:36;;;;;;;0.85;0.10;;;20.90;31.30;;;;;;4996177;28;20121;-43
2021/01/08 03:18:02;;;;;;;0.28;0.10;;;20.90;31.30;;;;;;4996668;28;20117;-42
2021/01/08 03:20:28;;;;;;;0.30;0.10;;;20.90;31.40;;;;;;4996329;28;20042;-44
2021/01/08 03:22:54;;;;;;;0.52;0.10;;;20.90;31.40;;;;;;4996317;28;20044;-42
2021/01/08 03:25:20;;;;;;;0.55;0.20;;;20.90;31.40;;;;;;4988716;28;20286;-42
2021/01/08 03:27:45;;;;;;;0.20;0.20;;;20.90;31.30;;;;;;4991229;28;20129;-43
2021/01/08 03:30:12;;;;;;;0.30;0.10;;;20.90;31.40;;;;;;4996109;28;20446;-46
2021/01/08 03:32:38;;;;;;;0.40;0.20;;;20.90;31.40;;;;;;4995625;28;20034;-43
2021/01/08 03:35:06;;;;;;;0.30;0.10;;;20.90;31.40;;;;;;4994776;28;20496;-43
2021/01/08 03:37:31;;;;;;;0.35;0.20;;;20.80;31.40;;;;;;4995966;28;20109;-44
2021/01/08 03:39:57;;;;;;;0.20;0.20;;;20.80;31.40;;;;;;4993582;28;20109;-47
2021/01/08 03:42:23;;;;;;;0.47;0.20;;;20.80;31.40;;;;;;4988544;28;20056;-48
2021/01/08 03:44:49;;;;;;;0.22;0.22;;;20.80;31.40;;;;;;4995667;28;20022;-45
2021/01/08 03:47:15;;;;;;;0.10;0.10;;;20.80;31.40;;;;;;4991965;28;20130;-44
2021/01/08 03:49:40;;;;;;;0.10;0.10;;;20.80;31.50;;;;;;4996268;28;20445;-46
2021/01/08 03:52:07;;;;;;;0.20;0.10;;;20.80;31.40;;;;;;4993512;28;20353;-46
2021/01/08 03:54:34;;;;;;;0.25;0.20;;;20.80;31.50;;;;;;4981960;28;20035;-43
2021/01/08 03:57:01;;;;;;;0.30;0.20;;;20.80;31.50;;;;;;4984912;28;20034;-47
2021/01/08 03:59:26;;;;;;;0.20;0.20;;;20.80;31.50;;;;;;4988316;28;20037;-48
2021/01/08 04:01:52;;;;;;;0.17;0.17;;;20.80;31.50;;;;;;4993650;28;20035;-43
2021/01/08 04:04:18;;;;;;;0.20;0.20;;;20.80;31.50;;;;;;4995384;28;20319;-47
2021/01/08 04:06:44;;;;;;;0.40;0.20;;;20.80;31.50;;;;;;4994502;28;20034;-42
2021/01/08 04:09:10;;;;;;;0.20;0.20;;;20.80;31.50;;;;;;4986704;28;20061;-45
2021/01/08 04:11:36;;;;;;;0.30;0.10;;;20.80;31.50;;;;;;4991626;28;20033;-46
2021/01/08 04:14:02;;;;;;;0.20;0.20;;;20.70;31.50;;;;;;4991070;28;20552;-47
2021/01/08 04:16:38;;;;;;;0.10;0.10;;;20.70;31.50;;;;;;4993935;28;20113;-42
2021/01/08 04:19:04;;;;;;;0.28;0.25;;;20.70;31.50;;;;;;4994025;28;20026;-42
2021/01/08 04:21:30;;;;;;;0.15;0.10;;;20.70;31.50;;;;;;4995489;28;20385;-44
2021/01/08 04:23:56;;;;;;;0.10;0.10;;;20.70;31.50;;;;;;4986341;28;20058;-43
2021/01/08 04:26:22;;;;;;;0.10;0.10;;;20.70;31.50;;;;;;4981106;28;20057;-42
2021/01/08 04:28:48;;;;;;;0.22;0.20;;;20.70;31.50;;;;;;4981384;28;20073;-42
2021/01/08 04:31:14;;;;;;;0.10;0.10;;;20.70;31.50;;;;;;4978909;28;20026;-45
2021/01/08 04:33:41;;;;;;;0.32;0.20;;;20.70;31.50;;;;;;4991499;28;20125;-45
2021/01/08 04:36:08;;;;;;;0.40;0.30;;;20.70;31.60;;;;;;4990641;28;20128;-45
2021/01/08 04:38:35;;;;;;;0.20;0.20;;;20.70;31.60;;;;;;4995310;28;20066;-44
2021/01/08 04:41:02;;;;;;;0.10;0.10;;;20.70;31.60;;;;;;4992477;28;20026;-44
2021/01/08 04:43:27;;;;;;;0.10;0.10;;;20.70;31.60;;;;;;4995445;28;20430;-44
2021/01/08 04:45:58;;;;;;;0.20;0.20;;;20.60;31.60;;;;;;4994971;28;20030;-44
2021/01/08 04:48:25;;;;;;;0.40;0.20;;;20.60;31.60;;;;;;4994520;28;20038;-44
2021/01/08 04:50:51;;;;;;;0.10;0.10;;;20.60;31.60;;;;;;4986047;28;20046;-47
2021/01/08 04:53:18;;;;;;;0.22;0.20;;;20.60;31.60;;;;;;4994082;28;20038;-41
2021/01/08 04:55:44;;;;;;;0.20;0.10;;;20.60;31.60;;;;;;4990774;28;20362;-43
2021/01/08 04:58:11;;;;;;;0.13;0.10;;;20.60;31.60;;;;;;4994792;28;20038;-43
2021/01/08 05:00:37;;;;;;;0.35;0.20;;;20.60;31.60;;;;;;4980071;28;20046;-44
2021/01/08 05:03:03;;;;;;;0.88;0.22;;;20.60;31.70;;;;;;4989122;28;20034;-42
2021/01/08 05:05:29;;;;;;;0.10;0.10;;;20.60;31.70;;;;;;4995082;28;20034;-42
2021/01/08 05:07:55;;;;;;;0.15;0.13;;;20.60;31.70;;;;;;4993901;28;20061;-45
2021/01/08 05:10:20;;;;;;;0.57;0.17;;;20.60;31.70;;;;;;4994631;28;20038;-44
2021/01/08 05:12:51;;;;;;;0.20;0.20;;;20.60;31.70;;;;;;4991666;28;20093;-44
2021/01/08 05:15:17;;;;;;;0.10;0.10;;;20.60;31.80;;;;;;4994965;28;20446;-43
2021/01/08 05:17:44;;;;;;;0.10;0.10;;;20.60;31.70;;;;;;4990191;28;20058;-45
2021/01/08 05:20:11;;;;;;;0.20;0.20;;;20.60;31.70;;;;;;4975893;28;20034;-44
2021/01/08 05:22:38;;;;;;;0.10;0.10;;;20.60;31.70;;;;;;4979331;28;20366;-46
2021/01/08 05:25:09;;;;;;;0.20;0.17;;;20.60;31.80;;;;;;4975692;28;20402;-44
2021/01/08 05:27:36;;;;;;;0.68;0.28;;;20.60;31.70;;;;;;4976469;28;20051;-43
2021/01/08 05:30:23;;;;;;;0.38;0.15;;;20.50;31.70;;;;;;4983576;28;20104;-42
2021/01/08 05:33:07;;;;;;;0.30;0.30;;;20.50;31.70;;;;;;4993148;28;20067;-42
2021/01/08 05:35:34;;;;;;;0.10;0.10;;;20.50;31.70;;;;;;4992018;28;20038;-43
2021/01/08 05:38:06;;;;;;;0.10;0.10;;;20.50;31.70;;;;;;4994475;28;20030;-44
2021/01/08 05:40:33;;;;;;;0.22;0.20;;;20.50;31.70;;;;;;4961029;28;20481;-44
2021/01/08 05:43:01;;;;;;;0.43;0.20;;;20.50;31.80;;;;;;4993082;28;20349;-43
2021/01/08 05:45:29;;;;;;;0.30;0.20;;;20.50;31.80;;;;;;4993738;28;20045;-43
2021/01/08 05:48:00;;;;;;;0.63;0.40;;;20.50;31.80;;;;;;4994391;28;20049;-44
2021/01/08 05:50:31;;;;;;;0.30;0.15;;;20.50;31.80;;;;;;4993101;28;20026;-41
2021/01/08 05:53:01;;;;;;;0.20;0.20;;;20.50;31.80;;;;;;4979007;28;20038;-44
2021/01/08 05:55:27;;;;;;;0.10;0.10;;;20.50;31.80;;;;;;4990654;28;20030;-45
2021/01/08 05:57:54;;;;;;;0.15;0.10;;;20.50;31.80;;;;;;4992121;28;20038;-43
2021/01/08 06:00:21;;;;;;;0.20;0.20;;;20.50;31.90;;;;;;5015992;28;20073;-46
2021/01/08 06:02:48;;;;;;;0.40;0.13;;;20.50;31.90;;;;;;4997478;28;20497;-44
2021/01/08 06:05:16;;;;;;;0.20;0.20;;;20.40;31.80;;;;;;4984237;28;20042;-43
2021/01/08 06:07:46;;;;;;;0.30;0.17;;;20.40;31.80;;;;;;4997000;28;20053;-45
2021/01/08 06:10:15;;;;;;;0.25;0.10;;;20.50;31.90;;;;;;4996646;28;20740;-45
2021/01/08 06:12:42;;;;;;;0.15;0.10;;;20.40;31.80;;;;;;4967780;28;20035;-45
2021/01/08 06:15:11;;;;;;;0.17;0.17;;;20.40;31.90;;;;;;4992716;28;20065;-44
2021/01/08 06:17:38;;;;;;;0.10;0.10;;;20.40;31.80;;;;;;4989850;28;20022;-42
2021/01/08 06:20:07;;;;;;;0.47;0.20;;;20.40;31.80;;;;;;4997035;28;20365;-42
2021/01/08 06:22:38;;;;;;;0.10;0.10;;;20.50;31.90;;;;;;4993887;28;20041;-44
2021/01/08 06:25:06;;;;;;;0.10;0.10;;;20.40;31.80;;;;;;4997957;28;20039;-42
2021/01/08 06:27:33;;;;;;;0.10;0.10;;;20.40;31.90;;;;;;4997025;28;20121;-44
2021/01/08 06:30:03;;;;;;;0.40;0.20;;;20.40;31.80;;;;;;4995488;28;20038;-45
2021/01/08 06:32:30;;;;;;;0.22;0.20;;;20.40;31.90;;;;;;4997243;28;20038;-44
2021/01/08 06:35:05;;;;;;;0.30;0.20;;;20.40;31.80;;;;;;4997002;28;20038;-45
2021/01/08 06:37:47;;;;;;;0.20;0.20;;;20.40;31.90;;;;;;4997265;28;20323;-45
2021/01/08 06:40:13;;;;;;;0.68;0.30;;;20.40;31.90;;;;;;4992781;28;20345;-44
2021/01/08 06:42:46;;;;;;;0.30;0.20;;;20.40;31.90;;;;;;4977996;28;20027;-45
2021/01/08 06:45:15;;;;;;;0.20;0.20;;;20.40;31.90;;;;;;4989593;28;20118;-43
2021/01/08 06:47:46;;;;;;;0.45;0.20;;;20.40;32.60;;;;;;4972658;28;20417;-45
2021/01/08 06:50:20;;;;;;;0.60;0.30;;;20.40;32.00;;;;;;4995833;28;20037;-43
2021/01/08 06:52:47;;;;;;;0.23;0.20;;;20.40;32.10;;;;;;4992292;28;20401;-43
2021/01/08 06:55:18;;;;;;;0.43;0.10;;;20.40;32.20;;;;;;4996495;28;20285;-45
2021/01/08 06:57:48;;;;;;;0.28;0.20;;;20.30;32.10;;;;;;4997026;28;20030;-45
2021/01/08 07:00:20;;;;;;;0.03;0.03;;;20.30;32.10;;;;;;4996048;28;20045;-42
2021/01/08 07:02:51;;;;;;;0.15;0.10;;;20.30;32.10;;;;;;4997264;28;20034;-47
2021/01/08 07:05:18;;;;;;;0.25;0.20;;;20.30;32.10;;;;;;4991005;28;20037;-44
2021/01/08 07:07:44;;;;;;;0.25;0.20;;;20.30;32.30;;;;;;4975159;28;20038;-46
2021/01/08 07:10:15;;;;;;;0.45;0.22;;;20.30;32.50;;;;;;4997382;28;20044;-44
2021/01/08 07:12:42;;;;;;;0.30;0.20;;;20.30;32.60;;;;;;4998228;28;20118;-42
2021/01/08 07:15:10;;;;;;;0.28;0.28;;;20.30;32.60;;;;;;4995917;28;20074;-64
2021/01/08 07:17:37;;;;;;;0.22;0.20;;;20.30;32.50;;;;;;4997474;28;20033;-43
2021/01/08 07:20:05;;;;;;;0.10;0.10;;;20.30;32.50;;;;;;4998171;28;20030;-42
2021/01/08 07:22:35;;;;;;;0.20;0.20;;;20.30;32.40;;;;;;4985142;28;20034;-43
2021/01/08 07:25:05;;;;;;;0.95;0.20;;;20.30;32.40;;;;;;4996362;28;20041;-49
2021/01/08 07:27:31;;;;;;;0.10;0.10;;;20.30;32.40;;;;;;4993746;28;20094;-43
2021/01/08 07:30:04;;;;;;;0.73;0.60;;;20.30;32.50;;;;;;4986099;28;20027;-43
2021/01/08 07:32:50;;;;;;;0.40;0.20;;;20.40;32.80;;;;;;4996285;28;20065;-46
2021/01/08 07:35:28;;;;;;;0.45;0.20;;;20.50;33.00;;;;;;4991001;28;20041;-44
2021/01/08 07:38:07;;;;;;;0.25;0.20;;;20.60;33.10;;;;;;4995932;28;20045;-44
2021/01/08 07:40:54;;;;;;;0.20;0.20;;;20.70;33.00;;;;;;4990220;28;20141;-43
2021/01/08 07:43:32;;;;;;;0.20;0.20;;;20.70;32.80;;;;;;4983596;28;20062;-43
2021/01/08 07:45:59;;;;;;;0.65;0.30;;;20.80;32.60;;;;;;4996406;28;20117;-47
2021/01/08 07:48:31;;;;;;;0.73;0.28;;;20.90;32.50;;;;;;4996221;28;20038;-42
2021/01/08 07:51:04;;;;;;;1.77;0.30;;;20.90;32.40;;;;;;4985862;28;20038;-42
2021/01/08 07:53:42;;;;;;;0.40;0.30;;;21.00;32.20;;;;;;4995391;28;20092;-43
2021/01/08 07:56:24;;;;;;;0.45;0.20;;;21.10;32.20;;;;;;4984447;28;20339;-47
2021/01/08 07:59:04;;;;;;;1.27;0.30;;;21.20;32.10;;;;;;4985799;28;20461;-44
2021/01/08 08:01:31;;;;;;;0.40;0.28;;;21.20;32.00;;;;;;4995042;28;20048;-44
2021/01/08 08:03:59;;;;;;;0.30;0.20;;;21.30;32.00;;;;;;4980768;28;20026;-42
2021/01/08 08:06:27;;;;;;;0.85;0.20;;;21.30;31.90;;;;;;4995693;28;20026;-44
2021/01/08 08:08:57;;;;;;;0.10;0.10;;;21.40;31.80;;;;;;4991095;28;20038;-42
2021/01/08 08:11:27;;;;;;;0.17;0.17;;;21.40;31.70;;;;;;4994673;28;20038;-43
2021/01/08 08:13:53;;;;;;;1.83;0.20;;;21.50;31.60;;;;;;4988643;28;20050;-42
2021/01/08 08:16:40;;;;;;;0.20;0.20;;;21.50;31.50;;;;;;4988621;28;20117;-42
2021/01/08 08:19:07;;;;;;;0.17;0.17;;;21.60;31.40;;;;;;4996123;28;20053;-44
2021/01/08 08:21:34;;;;;;;2.25;0.30;;;21.60;31.40;;;;;;4994012;28;20072;-42
2021/01/08 08:24:01;;;;;;;1.02;0.80;;;21.70;31.30;;;;;;4988432;28;20043;-63
2021/01/08 08:26:28;;;;;;;1.30;1.17;;;21.80;30.10;;;;;;4994135;28;20438;-63
2021/01/08 08:29:02;;;;;;;1.15;1.05;;;21.60;28.70;;;;;;4994707;28;20430;-46
2021/01/08 08:31:30;;;;;;;1.02;0.80;;;21.40;29.10;;;;;;4986880;28;20034;-43
2021/01/08 08:33:57;;;;;;;1.10;0.63;;;21.30;29.60;;;;;;4994092;28;20042;-46
2021/01/08 08:36:27;;;;;;;0.70;0.70;;;21.30;29.80;;;;;;4995130;28;20034;-44
2021/01/08 08:39:11;;;;;;;0.77;0.60;;;21.40;29.90;;;;;;4992181;28;20455;-44
2021/01/08 08:41:44;;;;;;;0.52;0.52;;;21.50;30.00;;;;;;5013789;28;20044;-44
2021/01/08 08:44:18;;;;;;;0.60;0.50;;;21.60;30.00;;;;;;4997077;28;20041;-43
2021/01/08 08:46:52;;;;;;;0.98;0.50;;;21.70;30.00;;;;;;4994918;28;20037;-45
2021/01/08 08:49:24;;;;;;;0.60;0.50;;;21.90;30.00;;;;;;4992235;28;20109;-44
2021/01/08 08:51:53;;;;;;;0.60;0.50;;;22.00;30.00;;;;;;4992009;28;20034;-43
2021/01/08 08:54:20;;;;;;;0.50;0.50;;;22.10;30.50;;;;;;4986214;28;20034;-46
2021/01/08 08:56:49;;;;;;;1.02;0.60;;;22.20;29.90;;;;;;4994955;28;20480;-50
2021/01/08 08:59:16;;;;;;;0.63;0.60;;;22.30;29.90;;;;;;4994087;28;20038;-44
2021/01/08 09:01:43;;;;;;;0.88;0.55;;;22.40;29.80;;;;;;4981300;28;20406;-44
2021/01/08 09:04:09;;;;;;;0.40;0.35;;;22.50;29.70;;;;;;4992009;28;20046;-45
2021/01/08 09:06:39;;;;;;;0.68;0.45;;;22.60;29.70;;;;;;4995247;28;20092;-44
2021/01/08 09:09:12;;;;;;;0.70;0.50;;;22.70;29.70;;;;;;4987663;28;20042;-45
2021/01/08 09:11:47;;;;;;;0.32;0.30;;;22.90;29.70;;;;;;4993636;28;20030;-45
2021/01/08 09:14:16;;;;;;;0.60;0.40;;;22.90;29.70;;;;;;4992267;28;20042;-47
2021/01/08 09:16:49;;;;;;;1.33;0.40;;;23.00;29.70;;;;;;4993807;28;20039;-44
2021/01/08 09:19:35;;;;;;;0.30;0.30;;;23.10;29.70;;;;;;4983706;28;20030;-44
2021/01/08 09:22:05;;;;;;;0.73;0.30;;;23.20;29.70;;;;;;4994876;28;20342;-43
2021/01/08 09:24:32;;;;;;;0.60;0.40;;;23.30;29.60;;;;;;4983445;28;20323;-44
2021/01/08 09:27:00;;;;;;;0.32;0.30;;;23.40;29.60;;;;;;4997660;28;20073;-44
2021/01/08 09:29:30;;;;;;;0.30;0.30;;;23.40;29.60;;;;;;4989863;28;20052;-43
2021/01/08 09:31:57;;;;;;;0.38;0.30;;;23.50;29.70;;;;;;4987293;28;20050;-46
2021/01/08 09:34:24;;;;;;;1.35;0.28;;;23.60;29.90;;;;;;4994548;28;20038;-47
2021/01/08 09:36:51;;;;;;;0.50;0.30;;;23.70;30.00;;;;;;4989508;28;20066;-52
2021/01/08 09:39:19;;;;;;;0.68;0.50;;;23.80;30.00;;;;;;4998744;28;20392;-44
2021/01/08 09:41:53;;;;;;;0.93;0.22;;;23.80;30.00;;;;;;4996803;28;20034;-47
2021/01/08 09:44:19;;;;;;;0.13;0.10;;;23.90;30.00;;;;;;4997440;28;20031;-54
2021/01/08 09:46:56;;;;;;;0.25;0.25;;;23.90;30.00;;;;;;4983234;28;20068;-45
2021/01/08 09:49:26;;;;;;;1.65;0.20;;;24.00;30.10;;;;;;4994388;28;20050;-45
2021/01/08 09:52:02;;;;;;;0.60;0.30;;;24.00;30.20;;;;;;4992035;28;20378;-48
2021/01/08 09:54:48;;;;;;;0.47;0.40;;;24.00;30.20;;;;;;4979017;28;20114;-45
2021/01/08 09:57:28;;;;;;;0.40;0.30;;;24.10;30.20;;;;;;4994050;28;20169;-49
2021/01/08 10:00:03;;;;;;;0.40;0.30;;;24.10;30.20;;;;;;4986072;28;20081;-59
2021/01/08 10:02:44;;;;;;;1.98;0.20;;;24.10;30.10;;;;;;4990670;28;20121;-48
2021/01/08 10:05:19;;;;;;;0.93;0.20;;;24.10;30.00;;;;;;4978871;28;20035;-48
2021/01/08 10:07:45;;;;;;;0.20;0.10;;;24.20;30.00;;;;;;4985452;28;20374;-51
2021/01/08 10:10:13;;;;;;;0.65;0.30;;;24.20;30.00;;;;;;4984228;28;20117;-51
2021/01/08 10:12:49;;;;;;;0.30;0.20;;;24.20;30.00;;;;;;4998382;28;20023;-46
2021/01/08 10:15:19;;;;;;;0.28;0.20;;;24.20;30.00;;;;;;4990951;28;20057;-49
2021/01/08 10:17:49;;;;;;;0.22;0.20;;;24.20;30.00;;;;;;4990206;28;20446;-49
2021/01/08 10:20:20;;;;;;;0.50;0.30;;;24.20;30.00;;;;;;4969325;28;20026;-46
2021/01/08 10:22:50;;;;;;;0.25;0.20;;;24.30;30.00;;;;;;4991984;28;20030;-46
2021/01/08 10:25:31;;;;;;;0.68;0.20;;;24.30;30.00;;;;;;4977255;28;20030;-44
2021/01/08 10:28:19;;;;;;;0.35;0.20;;;24.30;30.00;;;;;;4995340;28;20042;-51
2021/01/08 10:30:47;;;;;;;0.65;0.43;;;24.30;29.90;;;;;;4984568;28;20031;-48
2021/01/08 10:33:14;;;;;;;0.50;0.30;;;24.30;29.90;;;;;;4980082;28;20034;-46
2021/01/08 10:35:45;;;;;;;0.90;0.30;;;24.30;29.90;;;;;;4976706;28;20437;-46
2021/01/08 10:38:11;;;;;;;0.47;0.20;;;24.30;29.90;;;;;;4978148;28;20042;-45
2021/01/08 10:40:37;;;;;;;0.50;0.20;;;24.30;29.90;;;;;;4978179;28;20042;-47
2021/01/08 10:43:03;;;;;;;0.20;0.20;;;24.30;29.90;;;;;;4977840;28;20027;-45
2021/01/08 10:45:28;;;;;;;0.20;0.20;;;24.30;29.80;;;;;;4979138;28;20030;-46
2021/01/08 10:47:54;;;;;;;0.57;0.40;;;24.30;29.80;;;;;;4985458;28;20078;-47
2021/01/08 10:50:20;;;;;;;0.10;0.10;;;24.30;29.70;;;;;;4987045;28;20038;-49
2021/01/08 10:52:46;;;;;;;0.57;0.40;;;24.30;29.70;;;;;;4980746;28;20366;-45
2021/01/08 10:55:12;;;;;;;1.65;0.20;;;24.30;29.80;;;;;;4986704;28;20026;-47
2021/01/08 10:57:38;;;;;;;0.20;0.17;;;24.30;29.80;;;;;;4995986;28;20406;-48
2021/01/08 11:00:07;;;;;;;0.20;0.20;;;24.30;29.80;;;;;;4995947;28;20026;-44
2021/01/08 11:02:34;;;;;;;0.57;0.28;;;24.30;29.90;;;;;;4994680;28;20377;-46
2021/01/08 11:05:00;;;;;;;1.35;0.20;;;24.30;30.00;;;;;;4975838;28;20117;-51
2021/01/08 11:07:26;;;;;;;1.00;0.17;;;24.30;30.30;;;;;;4981036;28;20045;-52
2021/01/08 11:09:52;;;;;;;0.57;0.28;;;24.30;30.40;;;;;;4984402;28;20113;-48
2021/01/08 11:12:18;;;;;;;2.22;0.40;;;24.40;30.60;;;;;;4986361;28;20073;-47
2021/01/08 11:14:43;;;;;;;0.52;0.28;;;24.40;30.90;;;;;;4974447;28;636628;-49
2021/01/08 11:17:09;;;;;;;0.70;0.20;;;24.40;31.10;;;;;;4994098;28;20042;-52
2021/01/08 11:19:36;;;;;;;1.45;0.20;;;24.40;31.10;;;;;;4996011;28;20058;-50
2021/01/08 11:22:02;;;;;;;0.20;0.20;;;24.40;31.10;;;;;;4985862;28;20035;-46
2021/01/08 11:24:28;;;;;;;0.43;0.20;;;24.50;31.30;;;;;;4981392;28;20018;-50
2021/01/08 11:26:53;;;;;;;0.30;0.20;;;24.50;31.30;;;;;;4982686;28;20448;-56
2021/01/08 11:29:19;;;;;;;0.55;0.20;;;24.40;31.30;;;;;;4996548;28;20050;-47
2021/01/08 11:31:45;;;;;;;0.35;0.20;;;24.50;31.40;;;;;;4979549;28;20031;-52
2021/01/08 11:34:11;;;;;;;0.38;0.20;;;24.50;31.40;;;;;;4988167;28;20592;-51
2021/01/08 11:36:38;;;;;;;1.08;0.20;;;24.50;31.40;;;;;;4995167;28;20349;-53
2021/01/08 11:39:07;;;;;;;0.38;0.20;;;24.50;31.40;;;;;;4992644;28;20034;-48
2021/01/08 11:41:33;;;;;;;0.25;0.10;;;24.50;31.40;;;;;;4994428;28;20030;-49
2021/01/08 11:43:59;;;;;;;2.17;0.30;;;24.50;31.40;;;;;;4994132;28;20322;-50
2021/01/08 11:46:25;;;;;;;0.90;0.20;;;24.40;31.50;;;;;;4977248;28;20041;-50
2021/01/08 11:48:54;;;;;;;0.20;0.15;;;24.50;31.50;;;;;;4992510;28;20038;-50
2021/01/08 11:51:21;;;;;;;0.93;0.50;;;24.50;31.40;;;;;;4986920;28;20027;-47
2021/01/08 11:53:48;;;;;;;0.10;0.10;;;24.50;31.30;;;;;;4981961;28;20034;-51
2021/01/08 11:56:15;;;;;;;0.40;0.28;;;24.50;31.20;;;;;;4988206;28;20037;-50
2021/01/08 11:58:42;;;;;;;0.38;0.35;;;24.50;31.10;;;;;;4986563;28;20506;-52
2021/01/08 12:01:08;;;;;;;0.80;0.40;;;24.50;31.00;;;;;;4985972;28;20038;-54
2021/01/08 12:03:39;;;;;;;0.82;0.30;;;24.50;31.00;;;;;;4980699;28;20022;-55
2021/01/08 12:06:09;;;;;;;2.15;0.40;;;24.50;31.00;;;;;;4992497;28;20112;-58
2021/01/08 12:08:36;;;;;;;5.55;0.55;;;24.50;31.30;;;;;;4983893;28;20121;-48
2021/01/08 12:11:03;;;;;;;0.47;0.38;;;24.40;31.40;;;;;;4993884;28;20564;-52
2021/01/08 12:13:29;;;;;;;0.68;0.30;;;24.40;31.50;;;;;;4987601;28;20057;-49
2021/01/08 12:15:55;;;;;;;2.20;0.30;;;24.50;31.40;;;;;;4994002;28;20031;-51
2021/01/08 12:18:21;;;;;;;2.10;0.32;;;24.40;31.20;;;;;;4993976;28;20030;-50
2021/01/08 12:20:47;;;;;;;0.30;0.25;;;24.50;31.30;;;;;;4989716;28;20049;-51
2021/01/08 12:23:13;;;;;;;1.02;0.20;;;24.40;31.40;;;;;;4985827;28;20460;-53
2021/01/08 12:25:40;;;;;;;0.68;0.30;;;24.40;31.60;;;;;;4992453;28;20094;-52
2021/01/08 12:28:07;;;;;;;0.55;0.38;;;24.40;31.70;;;;;;4993359;28;20101;-52
2021/01/08 12:30:33;;;;;;;0.63;0.30;;;24.40;31.90;;;;;;4993350;28;20404;-53
2021/01/08 12:33:00;;;;;;;1.88;0.20;;;24.40;32.00;;;;;;4993397;28;20022;-53
2021/01/08 12:35:27;;;;;;;0.50;0.20;;;24.40;32.10;;;;;;4993182;28;20476;-51
2021/01/08 12:37:54;;;;;;;0.35;0.20;;;24.40;32.20;;;;;;4990349;28;20034;-52
2021/01/08 12:40:21;;;;;;;1.25;0.40;;;24.50;32.30;;;;;;4991003;28;20030;-47
2021/01/08 12:42:54;;;;;;;0.32;0.20;;;24.40;32.30;;;;;;4980926;28;20493;-54
2021/01/08 12:45:21;;;;;;;0.60;0.20;;;24.50;32.40;;;;;;4977915;28;20034;-54
2021/01/08 12:47:48;;;;;;;1.92;0.20;;;24.50;32.40;;;;;;4979858;28;20106;-51
2021/01/08 12:50:14;;;;;;;0.43;0.22;;;24.50;32.50;;;;;;4983978;28;20032;-54
2021/01/08 12:52:41;;;;;;;0.43;0.30;;;24.50;32.50;;;;;;4987431;28;20045;-56
2021/01/08 12:55:09;;;;;;;0.40;0.30;;;24.60;32.60;;;;;;4994526;28;20415;-56